createdAt,value
2018-03-26T00:01:24.771Z,24.23
2018-03-26T00:03:53.096Z,23.35
2018-03-26T00:06:23.244Z,18.92
2018-03-26T00:08:51.573Z,18.60
2018-03-26T00:11:19.903Z,22.83
2018-03-26T00:13:49.593Z,19.65
2018-03-26T00:16:18.699Z,20.12
2018-03-26T00:18:47.054Z,25.50
2018-03-26T00:21:16.050Z,17.02
2018-03-26T00:23:44.374Z,22.87
2018-03-26T00:26:12.714Z,22.75
2018-03-26T00:28:43.167Z,29.58
2018-03-26T00:31:11.504Z,25.80
2018-03-26T00:33:39.845Z,23.52
2018-03-26T00:36:09.245Z,21.92
2018-03-26T00:38:37.576Z,25.40
2018-03-26T00:41:07.483Z,23.52
2018-03-26T00:43:37.170Z,23.33
2018-03-26T00:46:09.430Z,28.55
2018-03-26T00:48:38.430Z,21.80
2018-03-26T00:51:06.785Z,24.92
2018-03-26T00:53:44.502Z,23.92
2018-03-26T00:56:13.598Z,26.52
2018-03-26T00:58:41.947Z,25.62
2018-03-26T01:01:11.394Z,27.42
2018-03-26T01:03:39.772Z,27.87
2018-03-26T01:06:08.140Z,30.08
2018-03-26T01:08:36.977Z,24.80
2018-03-26T01:11:06.319Z,26.92
2018-03-26T01:13:34.671Z,28.40
2018-03-26T01:16:03.225Z,30.52
2018-03-26T01:18:32.536Z,34.60
2018-03-26T01:21:00.902Z,29.08
2018-03-26T01:23:30.143Z,35.10
2018-03-26T01:25:58.502Z,27.83
2018-03-26T01:28:26.853Z,22.73
2018-03-26T01:30:56.824Z,29.95
2018-03-26T01:33:25.176Z,30.37
2018-03-26T01:35:53.551Z,30.17
2018-03-26T01:38:23.383Z,23.23
2018-03-26T01:40:52.483Z,29.08
2018-03-26T01:43:22.405Z,29.63
2018-03-26T01:45:52.021Z,33.22
2018-03-26T01:48:20.372Z,34.17
2018-03-26T01:50:48.703Z,29.15
2018-03-26T01:53:17.885Z,32.50
2018-03-26T01:55:46.281Z,30.50
2018-03-26T01:58:15.303Z,32.72
2018-03-26T02:00:45.320Z,36.65
2018-03-26T02:03:13.670Z,35.13
2018-03-26T02:05:42.781Z,33.17
2018-03-26T02:08:11.794Z,29.90
2018-03-26T02:10:40.171Z,30.48
2018-03-26T02:13:10.768Z,34.28
2018-03-26T02:15:40.501Z,31.87
2018-03-26T02:18:08.868Z,29.55
2018-03-26T02:20:37.983Z,32.55
2018-03-26T02:23:07.178Z,29.80
2018-03-26T02:25:36.285Z,36.17
2018-03-26T02:28:04.630Z,30.88
2018-03-26T02:30:34.964Z,37.47
2018-03-26T02:33:03.296Z,39.00
2018-03-26T02:35:31.648Z,38.45
2018-03-26T02:38:01.472Z,31.58
2018-03-26T02:40:30.305Z,30.30
2018-03-26T02:42:58.642Z,35.92
2018-03-26T02:45:30.625Z,36.15
2018-03-26T02:47:58.983Z,34.92
2018-03-26T02:50:27.293Z,33.88
2018-03-26T02:52:56.585Z,33.45
2018-03-26T02:55:24.935Z,35.05
2018-03-26T02:57:53.306Z,31.10
2018-03-26T03:00:21.736Z,36.92
2018-03-26T03:02:50.073Z,32.17
2018-03-26T03:05:18.418Z,34.15
2018-03-26T03:07:48.067Z,32.00
2018-03-26T03:10:16.406Z,33.20
2018-03-26T03:12:44.724Z,33.42
2018-03-26T03:15:15.788Z,36.20
2018-03-26T03:17:44.897Z,34.90
2018-03-26T03:20:13.214Z,35.45
2018-03-26T03:22:42.609Z,38.45
2018-03-26T03:25:10.944Z,31.98
2018-03-26T03:27:39.276Z,32.22
2018-03-26T03:30:08.608Z,36.30
2018-03-26T03:32:36.949Z,28.40
2018-03-26T03:35:06.034Z,35.00
2018-03-26T03:37:35.872Z,36.15
2018-03-26T03:40:04.980Z,29.98
2018-03-26T03:42:33.331Z,30.48
2018-03-26T03:45:03.294Z,33.97
2018-03-26T03:47:33.123Z,38.20
2018-03-26T03:50:01.459Z,35.63
2018-03-26T03:52:30.904Z,34.65
2018-03-26T03:54:59.229Z,32.28
2018-03-26T03:57:27.601Z,32.17
2018-03-26T03:59:57.228Z,34.00
2018-03-26T04:02:25.572Z,30.70
2018-03-26T04:04:53.982Z,33.58
2018-03-26T04:07:25.076Z,32.80
2018-03-26T04:09:53.679Z,31.75
2018-03-26T04:12:22.320Z,32.72
2018-03-26T04:14:52.444Z,36.30
2018-03-26T04:17:20.924Z,34.05
2018-03-26T04:19:50.294Z,35.10
2018-03-26T04:22:18.783Z,35.40
2018-03-26T04:24:47.980Z,29.85
2018-03-26T04:27:16.315Z,36.63
2018-03-26T04:29:44.665Z,36.95
2018-03-26T04:32:13.997Z,30.48
2018-03-26T04:34:43.088Z,34.28
2018-03-26T04:37:12.213Z,34.70
2018-03-26T04:39:41.676Z,31.80
2018-03-26T04:42:10.046Z,38.33
2018-03-26T04:44:38.391Z,41.72
2018-03-26T04:47:08.840Z,38.20
2018-03-26T04:49:38.383Z,40.78
2018-03-26T04:52:06.718Z,42.30
2018-03-26T04:54:35.899Z,43.00
2018-03-26T04:57:05.051Z,43.95
2018-03-26T04:59:33.442Z,40.65
2018-03-26T05:02:03.631Z,37.85
2018-03-26T05:04:32.013Z,36.67
2018-03-26T05:07:01.224Z,40.17
2018-03-26T05:09:30.761Z,40.38
2018-03-26T05:11:59.319Z,35.25
2018-03-26T05:14:27.774Z,40.92
2018-03-26T05:16:57.029Z,48.10
2018-03-26T05:19:25.405Z,40.08
2018-03-26T05:21:54.560Z,39.75
2018-03-26T05:24:24.821Z,47.03
2018-03-26T05:26:53.865Z,40.20
2018-03-26T05:29:22.220Z,43.58
2018-03-26T05:31:51.597Z,44.85
2018-03-26T05:34:19.953Z,44.42
2018-03-26T05:36:53.062Z,38.33
2018-03-26T05:39:21.430Z,44.33
2018-03-26T05:41:50.558Z,34.83
2018-03-26T05:44:20.001Z,34.83
2018-03-26T05:46:48.368Z,36.70
2018-03-26T05:49:16.743Z,38.20
2018-03-26T05:51:48.288Z,31.60
2018-03-26T05:54:16.661Z,40.92
2018-03-26T05:56:44.991Z,38.22
2018-03-26T05:59:14.645Z,44.50
2018-03-26T06:01:43.770Z,42.58
2018-03-26T06:04:12.097Z,43.58
2018-03-26T06:06:41.352Z,43.42
2018-03-26T06:09:09.690Z,41.13
2018-03-26T06:11:38.031Z,39.85
2018-03-26T06:14:07.730Z,40.17
2018-03-26T06:16:48.020Z,41.42
2018-03-26T06:19:17.611Z,43.83
2018-03-26T06:21:45.958Z,42.00
2018-03-26T06:24:14.319Z,47.92
2018-03-26T06:26:43.865Z,49.47
2018-03-26T06:29:12.198Z,44.38
2018-03-26T06:31:41.430Z,46.42
2018-03-26T06:34:11.549Z,48.15
2018-03-26T06:39:50.466Z,53.70
2018-03-26T06:42:18.755Z,46.42
2018-03-26T06:44:47.089Z,53.87
2018-03-26T06:47:16.223Z,48.80
2018-03-26T06:49:45.331Z,54.83
2018-03-26T06:52:14.732Z,52.78
2018-03-26T06:54:44.797Z,53.05
2018-03-26T06:57:13.069Z,46.40
2018-03-26T06:59:41.381Z,48.60
2018-03-26T07:02:10.696Z,45.88
2018-03-26T07:04:38.995Z,53.23
2018-03-26T07:07:08.082Z,46.47
2018-03-26T07:09:37.695Z,50.73
2018-03-26T07:12:06.033Z,47.57
2018-03-26T07:14:34.370Z,46.07
2018-03-26T07:17:04.264Z,51.80
2018-03-26T07:19:32.572Z,47.40
2018-03-26T07:22:01.815Z,43.70
2018-03-26T07:24:31.157Z,48.77
2018-03-26T07:26:59.468Z,46.43
2018-03-26T07:29:28.561Z,44.97
2018-03-26T07:31:58.695Z,48.10
2018-03-26T07:34:26.991Z,49.57
2018-03-26T07:36:55.273Z,46.63
2018-03-26T07:39:24.831Z,43.23
2018-03-26T07:41:53.137Z,44.30
2018-03-26T07:44:22.227Z,42.83
2018-03-26T07:46:51.342Z,41.83
2018-03-26T07:49:19.648Z,41.33
2018-03-26T07:51:47.949Z,45.97
2018-03-26T07:54:18.740Z,41.90
2018-03-26T07:56:47.795Z,45.50
2018-03-26T07:59:16.069Z,42.17
2018-03-26T08:01:44.800Z,39.23
2018-03-26T08:04:13.118Z,39.73
2018-03-26T08:06:41.424Z,46.20
2018-03-26T08:09:10.962Z,42.77
2018-03-26T08:11:39.296Z,42.30
2018-03-26T08:14:07.586Z,46.40
2018-03-26T08:16:36.471Z,39.33
2018-03-26T08:19:04.744Z,43.93
2018-03-26T08:21:33.047Z,42.90
2018-03-26T08:24:02.160Z,37.80
2018-03-26T08:26:30.447Z,47.90
2018-03-26T08:28:58.745Z,46.90
2018-03-26T08:31:28.350Z,35.33
2018-03-26T08:33:56.663Z,44.00
2018-03-26T08:36:25.738Z,39.77
2018-03-26T08:38:55.022Z,40.57
2018-03-26T08:41:23.369Z,38.23
2018-03-26T08:43:51.685Z,43.33
2018-03-26T08:46:20.957Z,39.83
2018-03-26T08:48:49.255Z,40.20
2018-03-26T08:51:17.697Z,44.63
2018-03-26T08:53:46.948Z,40.77
2018-03-26T08:56:17.003Z,39.93
2018-03-26T08:58:45.303Z,36.43
2018-03-26T09:01:14.912Z,46.60
2018-03-26T09:03:43.220Z,38.33
2018-03-26T09:06:11.695Z,40.20
2018-03-26T09:08:40.838Z,39.67
2018-03-26T09:11:09.165Z,37.43
2018-03-26T09:13:37.494Z,34.53
2018-03-26T09:16:07.244Z,37.73
2018-03-26T09:18:35.539Z,37.57
2018-03-26T09:21:04.613Z,43.37
2018-03-26T09:23:34.243Z,37.23
2018-03-26T09:26:02.560Z,44.33
2018-03-26T09:28:30.891Z,38.37
2018-03-26T09:30:59.209Z,40.33
2018-03-26T09:33:28.708Z,38.43
2018-03-26T09:35:57.022Z,35.43
2018-03-26T09:38:25.344Z,33.70
2018-03-26T09:40:54.784Z,38.50
2018-03-26T09:43:23.878Z,37.70
2018-03-26T09:45:52.238Z,37.83
2018-03-26T09:48:21.590Z,35.20
2018-03-26T09:50:50.437Z,33.20
2018-03-26T09:53:19.559Z,37.33
2018-03-26T09:55:48.640Z,37.27
2018-03-26T09:58:18.786Z,35.83
2018-03-26T10:00:48.672Z,36.53
2018-03-26T10:03:16.984Z,34.13
2018-03-26T10:05:47.099Z,37.00
2018-03-26T10:08:15.436Z,36.50
2018-03-26T10:10:43.735Z,34.97
2018-03-26T10:13:13.156Z,35.03
2018-03-26T10:15:41.461Z,35.17
2018-03-26T10:18:10.541Z,35.90
2018-03-26T10:20:39.320Z,33.87
2018-03-26T10:23:07.672Z,63.37
2018-03-26T10:25:35.985Z,33.73
2018-03-26T10:28:05.102Z,37.03
2018-03-26T10:30:35.353Z,37.17
2018-03-26T10:33:03.699Z,33.47
2018-03-26T10:35:32.005Z,36.20
2018-03-26T10:38:02.129Z,32.37
2018-03-26T10:40:31.474Z,33.33
2018-03-26T10:42:59.791Z,32.67
2018-03-26T10:45:29.159Z,31.33
2018-03-26T10:47:57.455Z,29.10
2018-03-26T10:50:25.756Z,34.17
2018-03-26T10:52:55.168Z,31.63
2018-03-26T10:55:23.453Z,32.20
2018-03-26T10:57:51.762Z,35.07
2018-03-26T11:00:22.948Z,34.83
2018-03-26T11:02:51.981Z,34.77
2018-03-26T11:05:21.056Z,36.40
2018-03-26T11:07:50.615Z,37.90
2018-03-26T11:10:19.691Z,38.67
2018-03-26T11:12:47.991Z,37.27
2018-03-26T11:15:18.416Z,37.40
2018-03-26T11:17:46.736Z,36.50
2018-03-26T11:20:15.028Z,39.43
2018-03-26T11:22:44.666Z,33.60
2018-03-26T11:25:12.971Z,36.80
2018-03-26T11:27:42.033Z,37.30
2018-03-26T11:30:11.533Z,40.50
2018-03-26T11:32:39.837Z,36.73
2018-03-26T11:35:08.157Z,34.50
2018-03-26T11:37:38.661Z,35.27
2018-03-26T11:40:06.975Z,43.40
2018-03-26T11:42:35.278Z,36.30
2018-03-26T11:45:04.798Z,35.40
2018-03-26T11:47:33.893Z,42.80
2018-03-26T11:50:02.301Z,44.30
2018-03-26T11:52:31.722Z,42.50
2018-03-26T11:55:00.024Z,36.03
2018-03-26T11:57:29.079Z,36.13
2018-03-26T11:59:58.638Z,36.17
2018-03-26T12:02:29.663Z,41.77
2018-03-26T12:04:58.684Z,34.80
2018-03-26T12:07:27.013Z,40.03
2018-03-26T12:09:55.328Z,30.40
2018-03-26T12:12:25.057Z,31.10
2018-03-26T12:14:54.114Z,33.70
2018-03-26T12:17:23.179Z,35.80
2018-03-26T12:20:04.271Z,48.63
2018-03-26T12:22:32.579Z,41.13
2018-03-26T12:25:16.012Z,40.57
2018-03-26T12:27:56.848Z,47.67
2018-03-26T12:30:27.420Z,44.03
2018-03-26T12:32:55.737Z,47.37
2018-03-26T12:35:36.523Z,40.40
2018-03-26T12:38:04.806Z,37.77
2018-03-26T12:40:45.839Z,36.23
2018-03-26T12:43:14.169Z,33.20
2018-03-26T12:45:55.433Z,38.80
2018-03-26T12:48:23.725Z,32.30
2018-03-26T12:51:03.948Z,29.27
2018-03-26T12:53:33.341Z,32.10
2018-03-26T12:56:02.423Z,29.53
2018-03-26T12:58:52.387Z,29.17
2018-03-26T13:01:33.512Z,30.27
2018-03-26T13:04:01.809Z,29.00
2018-03-26T13:06:32.986Z,33.17
2018-03-26T13:09:01.282Z,31.10
2018-03-26T13:11:29.601Z,33.33
2018-03-26T13:13:59.051Z,32.53
2018-03-26T13:16:27.351Z,29.67
2018-03-26T13:18:56.435Z,32.47
2018-03-26T13:21:25.670Z,40.03
2018-03-26T13:23:54.728Z,36.30
2018-03-26T13:26:23.029Z,38.17
2018-03-26T13:28:52.332Z,36.77
2018-03-26T13:31:20.646Z,49.20
2018-03-26T13:33:48.985Z,41.00
2018-03-26T13:36:18.400Z,42.67
2018-03-26T13:38:47.490Z,41.40
2018-03-26T13:41:15.805Z,43.63
2018-03-26T13:43:45.281Z,42.33
2018-03-26T13:46:13.591Z,40.10
2018-03-26T13:48:42.689Z,41.47
2018-03-26T13:51:12.690Z,41.20
2018-03-26T13:53:41.813Z,41.83
2018-03-26T13:56:10.112Z,45.20
2018-03-26T13:58:39.505Z,53.83
2018-03-26T14:01:07.831Z,45.10
2018-03-26T14:03:36.116Z,48.60
2018-03-26T14:06:04.441Z,50.40
2018-03-26T14:08:46.520Z,48.27
2018-03-26T14:11:29.225Z,49.07
2018-03-26T14:14:10.012Z,44.60
2018-03-26T14:16:50.238Z,42.13
2018-03-26T14:19:19.584Z,47.77
2018-03-26T14:21:47.881Z,41.70
2018-03-26T14:24:16.203Z,47.20
2018-03-26T14:26:45.639Z,44.20
2018-03-26T14:29:14.698Z,47.40
2018-03-26T14:31:43.016Z,54.43
2018-03-26T14:34:13.668Z,49.10
2018-03-26T14:36:41.998Z,50.70
2018-03-26T14:39:10.404Z,50.50
2018-03-26T14:41:39.572Z,50.70
2018-03-26T14:44:07.910Z,52.80
2018-03-26T14:46:36.244Z,53.73
2018-03-26T14:49:05.867Z,53.93
2018-03-26T14:51:34.285Z,54.87
2018-03-26T14:54:03.388Z,48.33
2018-03-26T14:56:32.899Z,47.70
2018-03-26T14:59:01.241Z,49.93
2018-03-26T15:01:29.526Z,50.03
2018-03-26T15:04:01.435Z,51.17
2018-03-26T15:06:29.760Z,48.87
2018-03-26T15:08:58.075Z,41.60
2018-03-26T15:11:30.645Z,42.50
2018-03-26T15:13:59.028Z,45.63
2018-03-26T15:16:27.316Z,46.93
2018-03-26T15:18:56.627Z,42.57
2018-03-26T15:21:24.931Z,45.83
2018-03-26T15:23:53.251Z,40.00
2018-03-26T15:26:22.704Z,46.77
2018-03-26T15:28:51.802Z,42.57
2018-03-26T15:31:20.876Z,43.80
2018-03-26T15:33:50.421Z,49.07
2018-03-26T15:36:19.477Z,46.27
2018-03-26T15:38:47.812Z,49.63
2018-03-26T15:42:01.157Z,44.40
2018-03-26T15:48:11.074Z,48.22
2018-03-26T17:27:00.926Z,59.85
2018-03-26T17:29:29.245Z,69.65
2018-03-26T17:31:57.567Z,61.42
2018-03-26T17:34:26.921Z,63.20
2018-03-26T17:36:56.099Z,68.82
2018-03-26T17:39:24.409Z,65.47
2018-03-26T17:41:53.816Z,67.05
2018-03-26T17:44:22.885Z,69.15
2018-03-26T17:46:51.186Z,63.80
2018-03-26T17:49:21.496Z,67.90
2018-03-26T17:51:49.828Z,69.72
2018-03-26T17:54:18.202Z,69.87
2018-03-26T17:56:48.214Z,62.50
2018-03-26T17:59:16.520Z,64.05
2018-03-26T18:01:44.835Z,62.20
2018-03-26T18:04:14.259Z,70.27
2018-03-26T18:06:43.339Z,70.55
2018-03-26T18:09:11.639Z,65.82
2018-03-26T18:11:40.732Z,66.37
2018-03-26T18:14:10.273Z,69.28
2018-03-26T18:16:38.590Z,69.72
2018-03-26T18:19:06.968Z,64.40
2018-03-26T18:21:36.334Z,64.82
2018-03-26T18:24:05.385Z,65.50
2018-03-26T18:26:35.671Z,60.80
2018-03-26T18:29:04.735Z,63.67
2018-03-26T18:31:33.039Z,67.18
2018-03-26T18:34:02.128Z,69.30
2018-03-26T18:36:31.254Z,63.83
2018-03-26T18:38:59.558Z,68.22
2018-03-26T18:41:27.877Z,64.65
2018-03-26T18:43:56.573Z,71.60
2018-03-26T18:46:24.873Z,69.37
2018-03-26T18:48:53.211Z,79.78
2018-03-26T18:51:22.576Z,75.37
2018-03-26T18:53:50.890Z,74.35
2018-03-26T18:56:19.173Z,62.67
2018-03-26T18:58:47.906Z,69.43
2018-03-26T19:01:16.187Z,71.90
2018-03-26T19:03:45.269Z,80.10
2018-03-26T19:06:14.225Z,76.95
2018-03-26T19:08:43.319Z,77.60
2018-03-26T19:11:11.647Z,78.37
2018-03-26T19:13:40.943Z,71.80
2018-03-26T19:16:09.264Z,69.62
2018-03-26T19:18:38.320Z,68.93
2018-03-26T19:21:06.657Z,76.47
2018-03-26T19:23:36.039Z,76.00
2018-03-26T19:26:04.362Z,84.18
2018-03-26T19:28:34.199Z,78.05
2018-03-26T19:31:02.507Z,68.43
2018-03-26T19:33:35.325Z,75.50
2018-03-26T19:36:03.746Z,70.20
2018-03-26T19:38:32.169Z,74.80
2018-03-26T19:41:01.851Z,79.10
2018-03-26T19:43:31.016Z,67.05
2018-03-26T19:46:00.142Z,66.40
2018-03-26T19:48:29.236Z,70.50
2018-03-26T19:50:57.796Z,74.77
2018-03-26T19:53:27.043Z,69.75
2018-03-26T19:55:55.776Z,74.90
2018-03-26T19:58:24.222Z,71.20
2018-03-26T20:00:52.616Z,78.85
2018-03-26T20:03:22.350Z,78.45
2018-03-26T20:05:51.461Z,77.87
2018-03-26T20:08:20.532Z,87.82
2018-03-26T20:10:49.565Z,77.90
2018-03-26T20:13:18.637Z,74.57
2018-03-26T20:15:46.977Z,81.85
2018-03-26T20:18:16.017Z,83.40
2018-03-26T20:20:45.084Z,92.87
2018-03-26T20:23:13.449Z,89.13
2018-03-26T20:25:43.614Z,88.53
2018-03-26T20:28:11.902Z,85.15
2018-03-26T20:30:41.940Z,89.80
2018-03-26T20:33:12.094Z,103.00
2018-03-26T20:35:40.390Z,93.03
2018-03-26T20:38:08.740Z,100.65
2018-03-26T20:40:37.942Z,93.55
2018-03-26T20:43:06.597Z,84.37
2018-03-26T20:45:34.988Z,85.90
2018-03-26T20:48:05.132Z,82.95
2018-03-26T20:50:38.327Z,78.50
2018-03-26T20:53:07.798Z,88.55
2018-03-26T20:55:36.094Z,93.97
2018-03-26T20:58:04.399Z,82.68
2018-03-26T21:00:34.276Z,95.62
2018-03-26T21:03:03.836Z,79.85
2018-03-26T21:05:32.171Z,85.32
2018-03-26T21:08:00.453Z,79.35
2018-03-26T21:10:29.566Z,88.40
2018-03-26T21:12:58.561Z,79.45
2018-03-26T21:15:26.871Z,92.72
2018-03-26T21:17:56.751Z,87.00
2018-03-26T21:20:25.098Z,82.78
2018-03-26T21:22:53.678Z,75.32
2018-03-26T21:25:22.981Z,76.10
2018-03-26T21:27:52.138Z,92.43
2018-03-26T21:30:24.063Z,91.45
2018-03-26T21:32:54.358Z,99.72
2018-03-26T21:35:25.607Z,89.03
2018-03-26T21:37:54.680Z,76.85
2018-03-26T21:40:23.262Z,88.72
2018-03-26T21:42:53.714Z,97.65
2018-03-26T21:45:22.997Z,89.18
2018-03-26T21:47:51.725Z,96.45
2018-03-26T21:50:21.371Z,91.87
2018-03-26T21:52:51.372Z,90.20
2018-03-26T21:55:19.761Z,94.60
2018-03-26T21:57:48.697Z,99.05
2018-03-26T22:00:17.890Z,94.18
2018-03-26T22:02:46.213Z,94.20
2018-03-26T22:05:15.668Z,95.28
2018-03-26T22:07:43.973Z,104.53
2018-03-26T22:10:12.310Z,118.28
2018-03-26T22:12:41.643Z,126.18
2018-03-26T22:15:10.041Z,118.80
2018-03-26T22:17:39.250Z,128.85
2018-03-26T22:20:09.104Z,111.62
2018-03-26T22:22:37.412Z,142.02
2018-03-26T22:25:05.717Z,127.00
2018-03-26T22:27:34.040Z,139.50
2018-03-26T22:30:04.361Z,133.00
2018-03-26T22:32:33.438Z,141.75
2018-03-26T22:35:03.229Z,158.12
2018-03-26T22:37:31.933Z,154.70
2018-03-26T22:40:00.270Z,159.80
2018-03-26T22:42:28.586Z,198.68
2018-03-26T22:44:57.624Z,194.62
2018-03-26T22:47:26.700Z,199.25
2018-03-26T22:49:55.086Z,194.02
2018-03-26T22:52:24.520Z,209.05
2018-03-26T22:54:53.577Z,211.20
2018-03-26T22:57:21.878Z,232.20
2018-03-26T22:59:50.900Z,251.60
2018-03-26T23:02:19.227Z,237.75
2018-03-26T23:04:47.537Z,256.02
2018-03-26T23:07:16.181Z,273.30
2018-03-26T23:09:44.748Z,249.77
2018-03-26T23:12:13.805Z,268.80
2018-03-26T23:14:42.682Z,263.12
2018-03-26T23:17:12.074Z,254.75
2018-03-26T23:19:40.344Z,281.67
2018-03-26T23:22:08.644Z,267.37
2018-03-26T23:24:37.501Z,275.77
2018-03-26T23:27:06.565Z,312.23
2018-03-26T23:29:34.865Z,291.52
2018-03-26T23:32:04.314Z,313.02
2018-03-26T23:34:32.603Z,302.65
2018-03-26T23:37:02.435Z,328.30
2018-03-26T23:39:31.636Z,310.60
2018-03-26T23:41:59.923Z,343.42
2018-03-26T23:44:28.223Z,276.70
2018-03-26T23:46:57.642Z,288.33
2018-03-26T23:49:26.014Z,324.83
2018-03-26T23:51:54.320Z,320.35
2018-03-26T23:54:24.537Z,315.60
2018-03-26T23:56:52.838Z,259.02
2018-03-26T23:59:21.904Z,313.33
